sensor_id;sensor_type;location;lat;lon;timestamp;P1;durP1;ratioP1;P2;durP2;ratioP2
11241;SDS011;5678;52.370;9.006;2023-07-29T00:02:18;0.20;;;0.20;;
11241;SDS011;5678;52.370;9.006;2023-07-29T00:04:46;0.20;;;0.20;;
11241;SDS011;5678;52.370;9.006;2023-07-29T00:07:15;0.30;;;0.30;;
11241;SDS011;5678;52.370;9.006;2023-07-29T00:09:43;0.20;;;0.20;;
11241;SDS011;5678;52.370;9.006;2023-07-29T00:12:12;0.30;;;0.30;;
11241;SDS011;5678;52.370;9.006;2023-07-29T00:14:41;0.20;;;0.20;;
11241;SDS011;5678;52.370;9.006;2023-07-29T00:17:09;0.30;;;0.30;;
11241;SDS011;5678;52.370;9.006;2023-07-29T00:19:37;0.30;;;0.30;;
11241;SDS011;5678;52.370;9.006;2023-07-29T00:22:05;0.30;;;0.30;;
11241;SDS011;5678;52.370;9.006;2023-07-29T00:24:34;0.30;;;0.30;;
11241;SDS011;5678;52.370;9.006;2023-07-29T00:27:03;0.20;;;0.20;;
11241;SDS011;5678;52.370;9.006;2023-07-29T00:29:32;0.30;;;0.30;;
11241;SDS011;5678;52.370;9.006;2023-07-29T00:32:01;0.27;;;0.27;;
11241;SDS011;5678;52.370;9.006;2023-07-29T00:34:29;0.20;;;0.20;;
11241;SDS011;5678;52.370;9.006;2023-07-29T00:36:57;0.30;;;0.30;;
11241;SDS011;5678;52.370;9.006;2023-07-29T00:39:25;0.30;;;0.30;;
11241;SDS011;5678;52.370;9.006;2023-07-29T00:41:54;0.30;;;0.30;;
11241;SDS011;5678;52.370;9.006;2023-07-29T00:44:22;0.30;;;0.30;;
11241;SDS011;5678;52.370;9.006;2023-07-29T00:46:52;0.30;;;0.30;;
11241;SDS011;5678;52.370;9.006;2023-07-29T00:49:20;0.20;;;0.20;;
11241;SDS011;5678;52.370;9.006;2023-07-29T00:51:49;0.20;;;0.20;;
11241;SDS011;5678;52.370;9.006;2023-07-29T00:54:17;0.30;;;0.30;;
11241;SDS011;5678;52.370;9.006;2023-07-29T00:56:45;0.30;;;0.30;;
11241;SDS011;5678;52.370;9.006;2023-07-29T00:59:14;0.30;;;0.30;;
11241;SDS011;5678;52.370;9.006;2023-07-29T01:01:42;0.30;;;0.30;;
11241;SDS011;5678;52.370;9.006;2023-07-29T01:04:12;0.30;;;0.30;;
11241;SDS011;5678;52.370;9.006;2023-07-29T01:06:41;0.30;;;0.30;;
11241;SDS011;5678;52.370;9.006;2023-07-29T01:09:14;0.30;;;0.30;;
11241;SDS011;5678;52.370;9.006;2023-07-29T01:11:46;0.47;;;0.47;;
11241;SDS011;5678;52.370;9.006;2023-07-29T01:14:18;0.30;;;0.30;;
11241;SDS011;5678;52.370;9.006;2023-07-29T01:16:50;0.30;;;0.30;;
11241;SDS011;5678;52.370;9.006;2023-07-29T01:19:25;0.30;;;0.30;;
11241;SDS011;5678;52.370;9.006;2023-07-29T01:21:56;0.30;;;0.30;;
11241;SDS011;5678;52.370;9.006;2023-07-29T01:24:25;0.30;;;0.30;;
11241;SDS011;5678;52.370;9.006;2023-07-29T01:26:53;0.20;;;0.20;;
11241;SDS011;5678;52.370;9.006;2023-07-29T01:29:22;0.30;;;0.30;;
11241;SDS011;5678;52.370;9.006;2023-07-29T01:31:50;0.30;;;0.30;;
11241;SDS011;5678;52.370;9.006;2023-07-29T01:34:23;0.30;;;0.30;;
11241;SDS011;5678;52.370;9.006;2023-07-29T01:36:52;0.30;;;0.30;;
11241;SDS011;5678;52.370;9.006;2023-07-29T01:39:22;0.27;;;0.27;;
11241;SDS011;5678;52.370;9.006;2023-07-29T01:41:53;0.30;;;0.30;;
11241;SDS011;5678;52.370;9.006;2023-07-29T01:44:21;0.20;;;0.20;;
11241;SDS011;5678;52.370;9.006;2023-07-29T01:46:52;0.20;;;0.20;;
11241;SDS011;5678;52.370;9.006;2023-07-29T01:49:20;0.30;;;0.30;;
11241;SDS011;5678;52.370;9.006;2023-07-29T01:51:48;0.20;;;0.20;;
11241;SDS011;5678;52.370;9.006;2023-07-29T01:54:19;0.30;;;0.30;;
11241;SDS011;5678;52.370;9.006;2023-07-29T01:56:53;0.30;;;0.30;;
11241;SDS011;5678;52.370;9.006;2023-07-29T01:59:23;0.30;;;0.30;;
11241;SDS011;5678;52.370;9.006;2023-07-29T02:01:52;0.30;;;0.30;;
11241;SDS011;5678;52.370;9.006;2023-07-29T02:04:21;0.30;;;0.30;;
11241;SDS011;5678;52.370;9.006;2023-07-29T02:06:49;0.30;;;0.30;;
11241;SDS011;5678;52.370;9.006;2023-07-29T02:09:18;0.20;;;0.20;;
11241;SDS011;5678;52.370;9.006;2023-07-29T02:11:46;0.30;;;0.30;;
11241;SDS011;5678;52.370;9.006;2023-07-29T02:14:15;0.27;;;0.27;;
11241;SDS011;5678;52.370;9.006;2023-07-29T02:16:44;0.30;;;0.30;;
11241;SDS011;5678;52.370;9.006;2023-07-29T02:19:12;0.30;;;0.30;;
11241;SDS011;5678;52.370;9.006;2023-07-29T02:21:40;0.30;;;0.30;;
11241;SDS011;5678;52.370;9.006;2023-07-29T02:24:08;0.27;;;0.27;;
11241;SDS011;5678;52.370;9.006;2023-07-29T02:26:36;0.30;;;0.30;;
11241;SDS011;5678;52.370;9.006;2023-07-29T02:29:04;0.30;;;0.30;;
11241;SDS011;5678;52.370;9.006;2023-07-29T02:31:33;0.30;;;0.30;;
11241;SDS011;5678;52.370;9.006;2023-07-29T02:34:03;0.20;;;0.20;;
11241;SDS011;5678;52.370;9.006;2023-07-29T02:36:31;0.30;;;0.30;;
11241;SDS011;5678;52.370;9.006;2023-07-29T02:39:00;0.30;;;0.30;;
11241;SDS011;5678;52.370;9.006;2023-07-29T02:41:28;0.20;;;0.20;;
11241;SDS011;5678;52.370;9.006;2023-07-29T02:43:55;0.20;;;0.20;;
11241;SDS011;5678;52.370;9.006;2023-07-29T02:46:23;0.30;;;0.30;;
11241;SDS011;5678;52.370;9.006;2023-07-29T02:48:53;0.30;;;0.30;;
11241;SDS011;5678;52.370;9.006;2023-07-29T02:51:21;0.30;;;0.30;;
11241;SDS011;5678;52.370;9.006;2023-07-29T02:53:49;0.27;;;0.27;;
11241;SDS011;5678;52.370;9.006;2023-07-29T02:56:17;0.30;;;0.30;;
11241;SDS011;5678;52.370;9.006;2023-07-29T02:58:45;0.30;;;0.30;;
11241;SDS011;5678;52.370;9.006;2023-07-29T03:01:13;0.30;;;0.30;;
11241;SDS011;5678;52.370;9.006;2023-07-29T03:03:41;0.20;;;0.20;;
11241;SDS011;5678;52.370;9.006;2023-07-29T03:06:11;0.30;;;0.30;;
11241;SDS011;5678;52.370;9.006;2023-07-29T03:08:40;0.20;;;0.20;;
11241;SDS011;5678;52.370;9.006;2023-07-29T03:11:09;0.20;;;0.20;;
11241;SDS011;5678;52.370;9.006;2023-07-29T03:13:38;0.30;;;0.30;;
11241;SDS011;5678;52.370;9.006;2023-07-29T03:16:06;0.30;;;0.30;;
11241;SDS011;5678;52.370;9.006;2023-07-29T03:18:34;0.30;;;0.30;;
11241;SDS011;5678;52.370;9.006;2023-07-29T03:21:03;0.23;;;0.23;;
11241;SDS011;5678;52.370;9.006;2023-07-29T03:23:33;0.30;;;0.30;;
11241;SDS011;5678;52.370;9.006;2023-07-29T03:26:02;0.20;;;0.20;;
11241;SDS011;5678;52.370;9.006;2023-07-29T03:28:36;0.30;;;0.30;;
11241;SDS011;5678;52.370;9.006;2023-07-29T03:31:05;0.30;;;0.30;;
11241;SDS011;5678;52.370;9.006;2023-07-29T03:33:33;0.30;;;0.30;;
11241;SDS011;5678;52.370;9.006;2023-07-29T03:36:01;0.30;;;0.30;;
11241;SDS011;5678;52.370;9.006;2023-07-29T03:38:30;0.30;;;0.30;;
11241;SDS011;5678;52.370;9.006;2023-07-29T03:41:00;0.30;;;0.30;;
11241;SDS011;5678;52.370;9.006;2023-07-29T03:43:29;0.30;;;0.30;;
11241;SDS011;5678;52.370;9.006;2023-07-29T03:45:57;0.30;;;0.30;;
11241;SDS011;5678;52.370;9.006;2023-07-29T03:48:25;0.30;;;0.30;;
11241;SDS011;5678;52.370;9.006;2023-07-29T03:50:53;0.30;;;0.30;;
11241;SDS011;5678;52.370;9.006;2023-07-29T03:53:21;0.30;;;0.30;;
11241;SDS011;5678;52.370;9.006;2023-07-29T03:55:49;0.30;;;0.30;;
11241;SDS011;5678;52.370;9.006;2023-07-29T03:58:18;0.20;;;0.20;;
11241;SDS011;5678;52.370;9.006;2023-07-29T04:00:47;0.20;;;0.20;;
11241;SDS011;5678;52.370;9.006;2023-07-29T04:03:15;0.30;;;0.30;;
11241;SDS011;5678;52.370;9.006;2023-07-29T04:05:43;0.30;;;0.30;;
11241;SDS011;5678;52.370;9.006;2023-07-29T04:08:11;0.30;;;0.30;;
11241;SDS011;5678;52.370;9.006;2023-07-29T04:10:39;0.20;;;0.20;;
11241;SDS011;5678;52.370;9.006;2023-07-29T04:13:07;0.30;;;0.30;;
11241;SDS011;5678;52.370;9.006;2023-07-29T04:15:36;0.30;;;0.30;;
11241;SDS011;5678;52.370;9.006;2023-07-29T04:18:04;0.27;;;0.27;;
11241;SDS011;5678;52.370;9.006;2023-07-29T04:20:32;0.20;;;0.20;;
11241;SDS011;5678;52.370;9.006;2023-07-29T04:23:00;0.30;;;0.30;;
11241;SDS011;5678;52.370;9.006;2023-07-29T04:25:28;0.20;;;0.20;;
11241;SDS011;5678;52.370;9.006;2023-07-29T04:27:56;0.30;;;0.30;;
11241;SDS011;5678;52.370;9.006;2023-07-29T04:30:24;0.30;;;0.30;;
11241;SDS011;5678;52.370;9.006;2023-07-29T04:32:53;0.30;;;0.30;;
11241;SDS011;5678;52.370;9.006;2023-07-29T04:35:21;0.30;;;0.30;;
11241;SDS011;5678;52.370;9.006;2023-07-29T04:37:49;0.20;;;0.20;;
11241;SDS011;5678;52.370;9.006;2023-07-29T04:40:17;0.30;;;0.30;;
11241;SDS011;5678;52.370;9.006;2023-07-29T04:42:45;0.30;;;0.30;;
11241;SDS011;5678;52.370;9.006;2023-07-29T04:45:13;0.30;;;0.30;;
11241;SDS011;5678;52.370;9.006;2023-07-29T04:47:42;0.20;;;0.20;;
11241;SDS011;5678;52.370;9.006;2023-07-29T04:50:11;0.30;;;0.30;;
11241;SDS011;5678;52.370;9.006;2023-07-29T04:52:39;0.50;;;0.50;;
11241;SDS011;5678;52.370;9.006;2023-07-29T04:55:07;0.30;;;0.30;;
11241;SDS011;5678;52.370;9.006;2023-07-29T04:57:35;0.30;;;0.30;;
11241;SDS011;5678;52.370;9.006;2023-07-29T05:00:03;0.30;;;0.30;;
11241;SDS011;5678;52.370;9.006;2023-07-29T05:02:32;0.20;;;0.20;;
11241;SDS011;5678;52.370;9.006;2023-07-29T05:05:00;0.20;;;0.20;;
11241;SDS011;5678;52.370;9.006;2023-07-29T05:07:29;0.27;;;0.27;;
11241;SDS011;5678;52.370;9.006;2023-07-29T05:09:57;0.20;;;0.20;;
11241;SDS011;5678;52.370;9.006;2023-07-29T05:12:25;0.20;;;0.20;;
11241;SDS011;5678;52.370;9.006;2023-07-29T05:14:55;0.30;;;0.30;;
11241;SDS011;5678;52.370;9.006;2023-07-29T05:17:23;0.20;;;0.20;;
11241;SDS011;5678;52.370;9.006;2023-07-29T05:19:51;0.30;;;0.30;;
11241;SDS011;5678;52.370;9.006;2023-07-29T05:22:19;0.20;;;0.20;;
11241;SDS011;5678;52.370;9.006;2023-07-29T05:24:49;0.30;;;0.30;;
11241;SDS011;5678;52.370;9.006;2023-07-29T05:27:17;0.30;;;0.30;;
11241;SDS011;5678;52.370;9.006;2023-07-29T05:29:45;0.27;;;0.27;;
11241;SDS011;5678;52.370;9.006;2023-07-29T05:32:12;0.30;;;0.30;;
11241;SDS011;5678;52.370;9.006;2023-07-29T05:34:40;0.30;;;0.30;;
11241;SDS011;5678;52.370;9.006;2023-07-29T05:37:08;0.30;;;0.30;;
11241;SDS011;5678;52.370;9.006;2023-07-29T05:39:36;0.30;;;0.30;;
11241;SDS011;5678;52.370;9.006;2023-07-29T05:42:06;0.23;;;0.23;;
11241;SDS011;5678;52.370;9.006;2023-07-29T05:44:34;0.30;;;0.30;;
11241;SDS011;5678;52.370;9.006;2023-07-29T05:47:02;0.30;;;0.30;;
11241;SDS011;5678;52.370;9.006;2023-07-29T05:49:30;0.30;;;0.30;;
11241;SDS011;5678;52.370;9.006;2023-07-29T05:51:58;0.30;;;0.30;;
11241;SDS011;5678;52.370;9.006;2023-07-29T05:54:26;0.30;;;0.30;;
11241;SDS011;5678;52.370;9.006;2023-07-29T05:56:54;0.30;;;0.30;;
11241;SDS011;5678;52.370;9.006;2023-07-29T05:59:23;0.23;;;0.23;;
11241;SDS011;5678;52.370;9.006;2023-07-29T06:01:51;0.30;;;0.30;;
11241;SDS011;5678;52.370;9.006;2023-07-29T06:04:19;0.20;;;0.20;;
11241;SDS011;5678;52.370;9.006;2023-07-29T06:06:47;0.20;;;0.20;;
11241;SDS011;5678;52.370;9.006;2023-07-29T06:09:15;0.20;;;0.20;;
11241;SDS011;5678;52.370;9.006;2023-07-29T06:11:43;0.20;;;0.20;;
11241;SDS011;5678;52.370;9.006;2023-07-29T06:14:11;0.20;;;0.20;;
11241;SDS011;5678;52.370;9.006;2023-07-29T06:16:40;0.23;;;0.23;;
11241;SDS011;5678;52.370;9.006;2023-07-29T06:19:09;0.20;;;0.20;;
11241;SDS011;5678;52.370;9.006;2023-07-29T06:21:36;0.30;;;0.30;;
11241;SDS011;5678;52.370;9.006;2023-07-29T06:24:04;0.30;;;0.30;;
11241;SDS011;5678;52.370;9.006;2023-07-29T06:26:36;0.20;;;0.20;;
11241;SDS011;5678;52.370;9.006;2023-07-29T06:29:04;0.33;;;0.33;;
11241;SDS011;5678;52.370;9.006;2023-07-29T06:31:32;0.20;;;0.20;;
11241;SDS011;5678;52.370;9.006;2023-07-29T06:34:02;0.20;;;0.20;;
11241;SDS011;5678;52.370;9.006;2023-07-29T06:36:30;0.30;;;0.30;;
11241;SDS011;5678;52.370;9.006;2023-07-29T06:38:58;0.23;;;0.23;;
11241;SDS011;5678;52.370;9.006;2023-07-29T06:41:26;0.20;;;0.20;;
11241;SDS011;5678;52.370;9.006;2023-07-29T06:43:53;0.20;;;0.20;;
11241;SDS011;5678;52.370;9.006;2023-07-29T06:46:21;0.20;;;0.20;;
11241;SDS011;5678;52.370;9.006;2023-07-29T06:48:49;0.20;;;0.20;;
11241;SDS011;5678;52.370;9.006;2023-07-29T06:51:19;0.20;;;0.20;;
11241;SDS011;5678;52.370;9.006;2023-07-29T06:53:46;0.20;;;0.20;;
11241;SDS011;5678;52.370;9.006;2023-07-29T06:56:14;0.20;;;0.20;;
11241;SDS011;5678;52.370;9.006;2023-07-29T06:58:42;0.20;;;0.20;;
11241;SDS011;5678;52.370;9.006;2023-07-29T07:01:10;0.30;;;0.30;;
11241;SDS011;5678;52.370;9.006;2023-07-29T07:03:38;0.23;;;0.23;;
11241;SDS011;5678;52.370;9.006;2023-07-29T07:06:06;0.20;;;0.20;;
11241;SDS011;5678;52.370;9.006;2023-07-29T07:08:36;0.30;;;0.30;;
11241;SDS011;5678;52.370;9.006;2023-07-29T07:11:04;0.20;;;0.20;;
11241;SDS011;5678;52.370;9.006;2023-07-29T07:13:32;0.20;;;0.20;;
11241;SDS011;5678;52.370;9.006;2023-07-29T07:16:00;0.23;;;0.23;;
11241;SDS011;5678;52.370;9.006;2023-07-29T07:18:28;0.20;;;0.20;;
11241;SDS011;5678;52.370;9.006;2023-07-29T07:20:56;0.10;;;0.10;;
11241;SDS011;5678;52.370;9.006;2023-07-29T07:23:24;0.20;;;0.20;;
11241;SDS011;5678;52.370;9.006;2023-07-29T07:25:53;0.20;;;0.20;;
11241;SDS011;5678;52.370;9.006;2023-07-29T07:28:21;0.30;;;0.30;;
11241;SDS011;5678;52.370;9.006;2023-07-29T07:30:49;0.20;;;0.20;;
11241;SDS011;5678;52.370;9.006;2023-07-29T07:33:17;0.20;;;0.20;;
11241;SDS011;5678;52.370;9.006;2023-07-29T07:35:45;0.13;;;0.13;;
11241;SDS011;5678;52.370;9.006;2023-07-29T07:38:12;0.20;;;0.20;;
11241;SDS011;5678;52.370;9.006;2023-07-29T07:40:40;0.20;;;0.20;;
11241;SDS011;5678;52.370;9.006;2023-07-29T07:43:10;0.20;;;0.20;;
11241;SDS011;5678;52.370;9.006;2023-07-29T07:45:37;0.20;;;0.20;;
11241;SDS011;5678;52.370;9.006;2023-07-29T07:48:05;0.20;;;0.20;;
11241;SDS011;5678;52.370;9.006;2023-07-29T07:50:36;0.20;;;0.20;;
11241;SDS011;5678;52.370;9.006;2023-07-29T07:53:04;0.20;;;0.20;;
11241;SDS011;5678;52.370;9.006;2023-07-29T07:55:32;0.20;;;0.20;;
11241;SDS011;5678;52.370;9.006;2023-07-29T07:57:59;0.20;;;0.20;;
11241;SDS011;5678;52.370;9.006;2023-07-29T08:00:29;0.20;;;0.20;;
11241;SDS011;5678;52.370;9.006;2023-07-29T08:02:56;0.20;;;0.20;;
11241;SDS011;5678;52.370;9.006;2023-07-29T08:05:24;0.20;;;0.20;;
11241;SDS011;5678;52.370;9.006;2023-07-29T08:07:52;0.20;;;0.20;;
11241;SDS011;5678;52.370;9.006;2023-07-29T08:10:20;0.20;;;0.20;;
11241;SDS011;5678;52.370;9.006;2023-07-29T08:12:48;0.20;;;0.20;;
11241;SDS011;5678;52.370;9.006;2023-07-29T08:15:19;0.20;;;0.20;;
11241;SDS011;5678;52.370;9.006;2023-07-29T08:17:48;0.20;;;0.20;;
11241;SDS011;5678;52.370;9.006;2023-07-29T08:20:16;0.17;;;0.17;;
11241;SDS011;5678;52.370;9.006;2023-07-29T08:22:44;0.20;;;0.20;;
11241;SDS011;5678;52.370;9.006;2023-07-29T08:25:12;0.20;;;0.20;;
11241;SDS011;5678;52.370;9.006;2023-07-29T08:27:40;0.20;;;0.20;;
11241;SDS011;5678;52.370;9.006;2023-07-29T08:30:08;0.10;;;0.10;;
11241;SDS011;5678;52.370;9.006;2023-07-29T08:32:36;0.20;;;0.20;;
11241;SDS011;5678;52.370;9.006;2023-07-29T08:35:06;0.20;;;0.20;;
11241;SDS011;5678;52.370;9.006;2023-07-29T08:37:35;0.20;;;0.20;;
11241;SDS011;5678;52.370;9.006;2023-07-29T08:40:03;0.20;;;0.20;;
11241;SDS011;5678;52.370;9.006;2023-07-29T08:42:32;0.53;;;0.53;;
11241;SDS011;5678;52.370;9.006;2023-07-29T08:45:01;0.20;;;0.20;;
11241;SDS011;5678;52.370;9.006;2023-07-29T08:47:34;0.20;;;0.20;;
11241;SDS011;5678;52.370;9.006;2023-07-29T08:50:03;0.20;;;0.20;;
11241;SDS011;5678;52.370;9.006;2023-07-29T08:52:33;0.20;;;0.20;;
11241;SDS011;5678;52.370;9.006;2023-07-29T08:55:02;0.20;;;0.20;;
11241;SDS011;5678;52.370;9.006;2023-07-29T08:57:30;0.10;;;0.10;;
11241;SDS011;5678;52.370;9.006;2023-07-29T08:59:58;0.20;;;0.20;;
11241;SDS011;5678;52.370;9.006;2023-07-29T09:02:28;0.30;;;0.30;;
11241;SDS011;5678;52.370;9.006;2023-07-29T09:04:56;0.10;;;0.10;;
11241;SDS011;5678;52.370;9.006;2023-07-29T09:07:24;0.20;;;0.20;;
11241;SDS011;5678;52.370;9.006;2023-07-29T09:09:54;0.20;;;0.20;;
11241;SDS011;5678;52.370;9.006;2023-07-29T09:12:22;0.20;;;0.20;;
11241;SDS011;5678;52.370;9.006;2023-07-29T09:14:51;0.20;;;0.20;;
11241;SDS011;5678;52.370;9.006;2023-07-29T09:17:20;0.10;;;0.10;;
11241;SDS011;5678;52.370;9.006;2023-07-29T09:19:48;0.20;;;0.20;;
11241;SDS011;5678;52.370;9.006;2023-07-29T09:22:18;0.10;;;0.10;;
11241;SDS011;5678;52.370;9.006;2023-07-29T09:24:46;0.10;;;0.10;;
11241;SDS011;5678;52.370;9.006;2023-07-29T09:27:24;0.20;;;0.20;;
11241;SDS011;5678;52.370;9.006;2023-07-29T09:29:53;0.10;;;0.10;;
11241;SDS011;5678;52.370;9.006;2023-07-29T09:32:22;0.20;;;0.20;;
11241;SDS011;5678;52.370;9.006;2023-07-29T09:34:51;0.20;;;0.20;;
11241;SDS011;5678;52.370;9.006;2023-07-29T09:37:20;0.20;;;0.20;;
11241;SDS011;5678;52.370;9.006;2023-07-29T09:39:49;0.20;;;0.20;;
11241;SDS011;5678;52.370;9.006;2023-07-29T09:42:18;0.20;;;0.20;;
11241;SDS011;5678;52.370;9.006;2023-07-29T09:44:48;0.20;;;0.20;;
11241;SDS011;5678;52.370;9.006;2023-07-29T09:47:20;0.20;;;0.20;;
11241;SDS011;5678;52.370;9.006;2023-07-29T09:49:48;0.20;;;0.20;;
11241;SDS011;5678;52.370;9.006;2023-07-29T09:52:17;0.10;;;0.10;;
11241;SDS011;5678;52.370;9.006;2023-07-29T09:54:46;0.20;;;0.20;;
11241;SDS011;5678;52.370;9.006;2023-07-29T09:57:15;0.10;;;0.10;;
11241;SDS011;5678;52.370;9.006;2023-07-29T09:59:54;0.10;;;0.10;;
11241;SDS011;5678;52.370;9.006;2023-07-29T10:02:22;0.10;;;0.10;;
11241;SDS011;5678;52.370;9.006;2023-07-29T10:04:52;0.10;;;0.10;;
11241;SDS011;5678;52.370;9.006;2023-07-29T10:07:20;0.10;;;0.10;;
11241;SDS011;5678;52.370;9.006;2023-07-29T10:09:49;0.10;;;0.10;;
11241;SDS011;5678;52.370;9.006;2023-07-29T10:12:19;0.20;;;0.20;;
11241;SDS011;5678;52.370;9.006;2023-07-29T10:14:49;0.10;;;0.10;;
11241;SDS011;5678;52.370;9.006;2023-07-29T10:17:18;0.10;;;0.10;;
11241;SDS011;5678;52.370;9.006;2023-07-29T10:19:48;0.10;;;0.10;;
11241;SDS011;5678;52.370;9.006;2023-07-29T10:22:17;0.08;;;0.08;;
11241;SDS011;5678;52.370;9.006;2023-07-29T10:24:48;0.10;;;0.10;;
11241;SDS011;5678;52.370;9.006;2023-07-29T10:27:18;0.08;;;0.08;;
11241;SDS011;5678;52.370;9.006;2023-07-29T10:29:47;0.10;;;0.10;;
11241;SDS011;5678;52.370;9.006;2023-07-29T10:32:16;0.10;;;0.10;;
11241;SDS011;5678;52.370;9.006;2023-07-29T10:34:46;0.10;;;0.10;;
11241;SDS011;5678;52.370;9.006;2023-07-29T10:37:14;0.10;;;0.10;;
11241;SDS011;5678;52.370;9.006;2023-07-29T10:39:51;0.10;;;0.10;;
11241;SDS011;5678;52.370;9.006;2023-07-29T10:42:20;0.10;;;0.10;;
11241;SDS011;5678;52.370;9.006;2023-07-29T10:44:50;0.10;;;0.10;;
11241;SDS011;5678;52.370;9.006;2023-07-29T10:47:20;0.10;;;0.10;;
11241;SDS011;5678;52.370;9.006;2023-07-29T10:49:52;0.10;;;0.10;;
11241;SDS011;5678;52.370;9.006;2023-07-29T10:52:28;0.10;;;0.10;;
11241;SDS011;5678;52.370;9.006;2023-07-29T10:54:57;0.00;;;0.00;;
11241;SDS011;5678;52.370;9.006;2023-07-29T10:57:32;0.10;;;0.10;;
11241;SDS011;5678;52.370;9.006;2023-07-29T11:00:02;0.10;;;0.10;;
11241;SDS011;5678;52.370;9.006;2023-07-29T11:02:32;0.10;;;0.10;;
11241;SDS011;5678;52.370;9.006;2023-07-29T11:05:05;0.10;;;0.10;;
11241;SDS011;5678;52.370;9.006;2023-07-29T11:07:42;0.00;;;0.00;;
11241;SDS011;5678;52.370;9.006;2023-07-29T11:10:11;0.10;;;0.10;;
11241;SDS011;5678;52.370;9.006;2023-07-29T11:12:41;0.10;;;0.10;;
11241;SDS011;5678;52.370;9.006;2023-07-29T11:15:13;0.10;;;0.10;;
11241;SDS011;5678;52.370;9.006;2023-07-29T11:17:43;0.10;;;0.10;;
11241;SDS011;5678;52.370;9.006;2023-07-29T11:20:13;0.10;;;0.10;;
11241;SDS011;5678;52.370;9.006;2023-07-29T11:22:42;0.10;;;0.10;;
11241;SDS011;5678;52.370;9.006;2023-07-29T11:25:11;0.10;;;0.10;;
11241;SDS011;5678;52.370;9.006;2023-07-29T11:27:40;0.10;;;0.10;;
11241;SDS011;5678;52.370;9.006;2023-07-29T11:30:08;0.10;;;0.10;;
11241;SDS011;5678;52.370;9.006;2023-07-29T11:32:38;0.10;;;0.10;;
11241;SDS011;5678;52.370;9.006;2023-07-29T11:35:08;0.20;;;0.20;;
11241;SDS011;5678;52.370;9.006;2023-07-29T11:37:38;0.10;;;0.10;;
11241;SDS011;5678;52.370;9.006;2023-07-29T11:40:07;0.10;;;0.10;;
11241;SDS011;5678;52.370;9.006;2023-07-29T11:42:36;0.10;;;0.10;;
11241;SDS011;5678;52.370;9.006;2023-07-29T11:45:05;0.10;;;0.10;;
11241;SDS011;5678;52.370;9.006;2023-07-29T11:47:34;0.00;;;0.00;;
11241;SDS011;5678;52.370;9.006;2023-07-29T11:50:03;0.10;;;0.10;;
11241;SDS011;5678;52.370;9.006;2023-07-29T11:52:33;0.10;;;0.10;;
11241;SDS011;5678;52.370;9.006;2023-07-29T11:55:03;0.10;;;0.10;;
11241;SDS011;5678;52.370;9.006;2023-07-29T11:57:33;0.10;;;0.10;;
11241;SDS011;5678;52.370;9.006;2023-07-29T12:00:03;0.10;;;0.10;;
11241;SDS011;5678;52.370;9.006;2023-07-29T12:02:33;0.10;;;0.10;;
11241;SDS011;5678;52.370;9.006;2023-07-29T12:05:04;0.10;;;0.10;;
11241;SDS011;5678;52.370;9.006;2023-07-29T12:07:32;0.10;;;0.10;;
11241;SDS011;5678;52.370;9.006;2023-07-29T12:10:02;0.10;;;0.10;;
11241;SDS011;5678;52.370;9.006;2023-07-29T12:12:31;0.10;;;0.10;;
11241;SDS011;5678;52.370;9.006;2023-07-29T12:14:59;0.10;;;0.10;;
11241;SDS011;5678;52.370;9.006;2023-07-29T12:17:27;0.10;;;0.10;;
11241;SDS011;5678;52.370;9.006;2023-07-29T12:19:55;0.10;;;0.10;;
11241;SDS011;5678;52.370;9.006;2023-07-29T12:22:24;0.10;;;0.10;;
11241;SDS011;5678;52.370;9.006;2023-07-29T12:24:51;0.10;;;0.10;;
11241;SDS011;5678;52.370;9.006;2023-07-29T12:27:21;0.10;;;0.10;;
11241;SDS011;5678;52.370;9.006;2023-07-29T12:29:51;0.10;;;0.10;;
11241;SDS011;5678;52.370;9.006;2023-07-29T12:32:19;0.00;;;0.00;;
11241;SDS011;5678;52.370;9.006;2023-07-29T12:34:47;0.10;;;0.10;;
11241;SDS011;5678;52.370;9.006;2023-07-29T12:37:15;0.10;;;0.10;;
11241;SDS011;5678;52.370;9.006;2023-07-29T12:39:43;0.10;;;0.10;;
11241;SDS011;5678;52.370;9.006;2023-07-29T12:42:11;0.10;;;0.10;;
11241;SDS011;5678;52.370;9.006;2023-07-29T12:44:40;0.10;;;0.10;;
11241;SDS011;5678;52.370;9.006;2023-07-29T12:47:08;0.10;;;0.10;;
11241;SDS011;5678;52.370;9.006;2023-07-29T12:49:37;0.10;;;0.10;;
11241;SDS011;5678;52.370;9.006;2023-07-29T12:52:05;0.10;;;0.10;;
11241;SDS011;5678;52.370;9.006;2023-07-29T12:54:33;0.10;;;0.10;;
11241;SDS011;5678;52.370;9.006;2023-07-29T12:57:01;0.10;;;0.10;;
11241;SDS011;5678;52.370;9.006;2023-07-29T12:59:29;0.10;;;0.10;;
11241;SDS011;5678;52.370;9.006;2023-07-29T13:01:59;0.10;;;0.10;;
11241;SDS011;5678;52.370;9.006;2023-07-29T13:04:27;0.10;;;0.10;;
11241;SDS011;5678;52.370;9.006;2023-07-29T13:06:54;0.10;;;0.10;;
11241;SDS011;5678;52.370;9.006;2023-07-29T13:09:23;0.10;;;0.10;;
11241;SDS011;5678;52.370;9.006;2023-07-29T13:11:51;0.00;;;0.00;;
11241;SDS011;5678;52.370;9.006;2023-07-29T13:14:18;0.05;;;0.05;;
11241;SDS011;5678;52.370;9.006;2023-07-29T13:16:46;0.80;;;0.80;;
11241;SDS011;5678;52.370;9.006;2023-07-29T13:19:16;0.10;;;0.10;;
11241;SDS011;5678;52.370;9.006;2023-07-29T13:21:45;0.10;;;0.10;;
11241;SDS011;5678;52.370;9.006;2023-07-29T13:24:13;0.10;;;0.10;;
11241;SDS011;5678;52.370;9.006;2023-07-29T13:26:41;0.10;;;0.10;;
11241;SDS011;5678;52.370;9.006;2023-07-29T13:29:09;0.10;;;0.10;;
11241;SDS011;5678;52.370;9.006;2023-07-29T13:31:37;0.10;;;0.10;;
11241;SDS011;5678;52.370;9.006;2023-07-29T13:34:05;0.10;;;0.10;;
11241;SDS011;5678;52.370;9.006;2023-07-29T13:36:34;0.05;;;0.05;;
11241;SDS011;5678;52.370;9.006;2023-07-29T13:39:02;0.10;;;0.10;;
11241;SDS011;5678;52.370;9.006;2023-07-29T13:41:30;0.10;;;0.10;;
11241;SDS011;5678;52.370;9.006;2023-07-29T13:43:58;0.10;;;0.10;;
11241;SDS011;5678;52.370;9.006;2023-07-29T13:46:26;0.13;;;0.13;;
11241;SDS011;5678;52.370;9.006;2023-07-29T13:48:54;0.10;;;0.10;;
11241;SDS011;5678;52.370;9.006;2023-07-29T13:51:22;0.10;;;0.10;;
11241;SDS011;5678;52.370;9.006;2023-07-29T13:53:52;0.10;;;0.10;;
11241;SDS011;5678;52.370;9.006;2023-07-29T13:56:20;0.10;;;0.10;;
11241;SDS011;5678;52.370;9.006;2023-07-29T13:58:47;0.10;;;0.10;;
11241;SDS011;5678;52.370;9.006;2023-07-29T14:01:15;0.10;;;0.10;;
11241;SDS011;5678;52.370;9.006;2023-07-29T14:03:43;0.10;;;0.10;;
11241;SDS011;5678;52.370;9.006;2023-07-29T14:06:11;0.10;;;0.10;;
11241;SDS011;5678;52.370;9.006;2023-07-29T14:08:39;0.10;;;0.10;;
11241;SDS011;5678;52.370;9.006;2023-07-29T14:11:09;0.10;;;0.10;;
11241;SDS011;5678;52.370;9.006;2023-07-29T14:13:37;0.20;;;0.20;;
11241;SDS011;5678;52.370;9.006;2023-07-29T14:16:05;0.10;;;0.10;;
11241;SDS011;5678;52.370;9.006;2023-07-29T14:18:33;0.10;;;0.10;;
11241;SDS011;5678;52.370;9.006;2023-07-29T14:21:01;0.10;;;0.10;;
11241;SDS011;5678;52.370;9.006;2023-07-29T14:23:28;0.10;;;0.10;;
11241;SDS011;5678;52.370;9.006;2023-07-29T14:25:59;0.10;;;0.10;;
11241;SDS011;5678;52.370;9.006;2023-07-29T14:28:28;0.10;;;0.10;;
11241;SDS011;5678;52.370;9.006;2023-07-29T14:30:56;0.10;;;0.10;;
11241;SDS011;5678;52.370;9.006;2023-07-29T14:33:24;0.10;;;0.10;;
11241;SDS011;5678;52.370;9.006;2023-07-29T14:35:52;0.10;;;0.10;;
11241;SDS011;5678;52.370;9.006;2023-07-29T14:38:20;0.10;;;0.10;;
11241;SDS011;5678;52.370;9.006;2023-07-29T14:40:48;0.10;;;0.10;;
11241;SDS011;5678;52.370;9.006;2023-07-29T14:43:17;0.10;;;0.10;;
11241;SDS011;5678;52.370;9.006;2023-07-29T14:45:46;0.10;;;0.10;;
11241;SDS011;5678;52.370;9.006;2023-07-29T14:48:14;0.10;;;0.10;;
11241;SDS011;5678;52.370;9.006;2023-07-29T14:50:42;0.00;;;0.00;;
11241;SDS011;5678;52.370;9.006;2023-07-29T14:53:10;0.10;;;0.10;;
11241;SDS011;5678;52.370;9.006;2023-07-29T14:55:38;0.10;;;0.10;;
11241;SDS011;5678;52.370;9.006;2023-07-29T14:58:06;0.10;;;0.10;;
11241;SDS011;5678;52.370;9.006;2023-07-29T15:00:34;0.10;;;0.10;;
11241;SDS011;5678;52.370;9.006;2023-07-29T15:03:04;0.10;;;0.10;;
11241;SDS011;5678;52.370;9.006;2023-07-29T15:05:33;0.10;;;0.10;;
11241;SDS011;5678;52.370;9.006;2023-07-29T15:08:01;0.10;;;0.10;;
11241;SDS011;5678;52.370;9.006;2023-07-29T15:10:29;0.10;;;0.10;;